sensor_id;sensor_type;location;lat;lon;timestamp;temperature;humidity
7077;DHT22;3579;48.956;9.154;2022-07-23T00:01:35;29.90;47.90
7077;DHT22;3579;48.956;9.154;2022-07-23T00:04:01;29.90;47.90
7077;DHT22;3579;48.956;9.154;2022-07-23T00:06:27;29.80;48.40
7077;DHT22;3579;48.956;9.154;2022-07-23T00:08:53;29.80;47.80
7077;DHT22;3579;48.956;9.154;2022-07-23T00:11:19;29.80;47.80
7077;DHT22;3579;48.956;9.154;2022-07-23T00:13:47;29.90;47.90
7077;DHT22;3579;48.956;9.154;2022-07-23T00:16:13;29.80;47.80
7077;DHT22;3579;48.956;9.154;2022-07-23T00:18:39;29.80;47.80
7077;DHT22;3579;48.956;9.154;2022-07-23T00:21:06;29.80;47.80
7077;DHT22;3579;48.956;9.154;2022-07-23T00:23:32;29.90;47.90
7077;DHT22;3579;48.956;9.154;2022-07-23T00:25:58;29.80;47.80
7077;DHT22;3579;48.956;9.154;2022-07-23T00:28:24;29.80;47.90
7077;DHT22;3579;48.956;9.154;2022-07-23T00:30:50;29.80;47.90
7077;DHT22;3579;48.956;9.154;2022-07-23T00:33:16;29.80;47.90
7077;DHT22;3579;48.956;9.154;2022-07-23T00:35:42;29.80;47.90
7077;DHT22;3579;48.956;9.154;2022-07-23T00:38:10;29.80;47.90
7077;DHT22;3579;48.956;9.154;2022-07-23T00:40:37;29.80;48.00
7077;DHT22;3579;48.956;9.154;2022-07-23T00:43:03;29.80;47.90
7077;DHT22;3579;48.956;9.154;2022-07-23T00:45:30;29.80;48.00
7077;DHT22;3579;48.956;9.154;2022-07-23T00:47:56;29.80;48.00
7077;DHT22;3579;48.956;9.154;2022-07-23T00:50:23;29.80;48.00
7077;DHT22;3579;48.956;9.154;2022-07-23T00:52:49;29.80;48.00
7077;DHT22;3579;48.956;9.154;2022-07-23T00:55:15;29.80;48.00
7077;DHT22;3579;48.956;9.154;2022-07-23T00:57:41;29.80;48.00
7077;DHT22;3579;48.956;9.154;2022-07-23T01:00:10;29.80;48.00
7077;DHT22;3579;48.956;9.154;2022-07-23T01:02:37;29.80;48.00
7077;DHT22;3579;48.956;9.154;2022-07-23T01:05:04;29.80;48.00
7077;DHT22;3579;48.956;9.154;2022-07-23T01:07:30;29.80;48.00
7077;DHT22;3579;48.956;9.154;2022-07-23T01:09:56;29.80;48.00
7077;DHT22;3579;48.956;9.154;2022-07-23T01:12:23;29.80;48.00
7077;DHT22;3579;48.956;9.154;2022-07-23T01:14:59;29.80;48.00
7077;DHT22;3579;48.956;9.154;2022-07-23T01:17:26;29.80;48.00
7077;DHT22;3579;48.956;9.154;2022-07-23T01:19:52;29.80;48.00
7077;DHT22;3579;48.956;9.154;2022-07-23T01:22:19;29.80;48.00
7077;DHT22;3579;48.956;9.154;2022-07-23T01:24:46;29.80;48.00
7077;DHT22;3579;48.956;9.154;2022-07-23T01:27:12;29.80;48.00
7077;DHT22;3579;48.956;9.154;2022-07-23T01:29:43;29.80;48.00
7077;DHT22;3579;48.956;9.154;2022-07-23T01:32:09;29.80;48.00
7077;DHT22;3579;48.956;9.154;2022-07-23T01:34:35;29.70;48.00
7077;DHT22;3579;48.956;9.154;2022-07-23T01:37:01;29.80;48.00
7077;DHT22;3579;48.956;9.154;2022-07-23T01:39:27;29.70;48.50
7077;DHT22;3579;48.956;9.154;2022-07-23T01:41:53;29.70;48.00
7077;DHT22;3579;48.956;9.154;2022-07-23T01:44:18;29.80;48.00
7077;DHT22;3579;48.956;9.154;2022-07-23T01:46:44;30.00;48.20
7077;DHT22;3579;48.956;9.154;2022-07-23T01:49:10;29.70;47.90
7077;DHT22;3579;48.956;9.154;2022-07-23T01:51:36;29.70;48.00
7077;DHT22;3579;48.956;9.154;2022-07-23T01:54:02;29.70;48.00
7077;DHT22;3579;48.956;9.154;2022-07-23T01:56:28;29.70;48.00
7077;DHT22;3579;48.956;9.154;2022-07-23T01:58:54;29.80;48.10
7077;DHT22;3579;48.956;9.154;2022-07-23T02:01:20;29.70;48.00
7077;DHT22;3579;48.956;9.154;2022-07-23T02:03:46;29.70;48.10
7077;DHT22;3579;48.956;9.154;2022-07-23T02:06:12;29.70;48.10
7077;DHT22;3579;48.956;9.154;2022-07-23T02:08:38;29.70;48.00
7077;DHT22;3579;48.956;9.154;2022-07-23T02:11:04;29.80;48.10
7077;DHT22;3579;48.956;9.154;2022-07-23T02:13:30;29.70;48.10
7077;DHT22;3579;48.956;9.154;2022-07-23T02:15:56;29.70;48.10
7077;DHT22;3579;48.956;9.154;2022-07-23T02:18:21;29.70;48.10
7077;DHT22;3579;48.956;9.154;2022-07-23T02:20:47;29.70;48.10
7077;DHT22;3579;48.956;9.154;2022-07-23T02:23:13;29.70;48.10
7077;DHT22;3579;48.956;9.154;2022-07-23T02:25:39;29.70;48.10
7077;DHT22;3579;48.956;9.154;2022-07-23T02:28:05;29.70;48.10
7077;DHT22;3579;48.956;9.154;2022-07-23T02:30:31;29.70;48.10
7077;DHT22;3579;48.956;9.154;2022-07-23T02:32:57;29.70;48.10
7077;DHT22;3579;48.956;9.154;2022-07-23T02:35:23;29.60;48.10
7077;DHT22;3579;48.956;9.154;2022-07-23T02:37:49;29.70;48.20
7077;DHT22;3579;48.956;9.154;2022-07-23T02:40:15;29.60;48.10
7077;DHT22;3579;48.956;9.154;2022-07-23T02:42:41;29.70;48.20
7077;DHT22;3579;48.956;9.154;2022-07-23T02:45:08;29.70;48.10
7077;DHT22;3579;48.956;9.154;2022-07-23T02:47:34;29.70;48.10
7077;DHT22;3579;48.956;9.154;2022-07-23T02:50:00;29.60;48.10
7077;DHT22;3579;48.956;9.154;2022-07-23T02:52:25;29.70;48.20
7077;DHT22;3579;48.956;9.154;2022-07-23T02:54:51;29.60;48.10
7077;DHT22;3579;48.956;9.154;2022-07-23T02:57:17;29.70;48.10
7077;DHT22;3579;48.956;9.154;2022-07-23T02:59:43;29.70;48.00
7077;DHT22;3579;48.956;9.154;2022-07-23T03:02:09;29.70;48.10
7077;DHT22;3579;48.956;9.154;2022-07-23T03:04:35;29.70;48.10
7077;DHT22;3579;48.956;9.154;2022-07-23T03:07:01;29.70;48.10
7077;DHT22;3579;48.956;9.154;2022-07-23T03:09:27;29.60;48.10
7077;DHT22;3579;48.956;9.154;2022-07-23T03:11:53;29.60;48.10
7077;DHT22;3579;48.956;9.154;2022-07-23T03:14:19;29.60;48.10
7077;DHT22;3579;48.956;9.154;2022-07-23T03:16:45;29.60;48.10
7077;DHT22;3579;48.956;9.154;2022-07-23T03:19:11;29.60;48.10
7077;DHT22;3579;48.956;9.154;2022-07-23T03:21:37;29.60;48.00
7077;DHT22;3579;48.956;9.154;2022-07-23T03:24:08;29.60;48.10
7077;DHT22;3579;48.956;9.154;2022-07-23T03:26:34;29.60;48.10
7077;DHT22;3579;48.956;9.154;2022-07-23T03:29:00;29.60;48.00
7077;DHT22;3579;48.956;9.154;2022-07-23T03:31:27;29.60;48.10
7077;DHT22;3579;48.956;9.154;2022-07-23T03:33:53;29.60;48.20
7077;DHT22;3579;48.956;9.154;2022-07-23T03:36:18;29.60;48.10
7077;DHT22;3579;48.956;9.154;2022-07-23T03:38:44;29.60;48.10
7077;DHT22;3579;48.956;9.154;2022-07-23T03:41:10;29.60;48.20
7077;DHT22;3579;48.956;9.154;2022-07-23T03:43:36;29.60;48.30
7077;DHT22;3579;48.956;9.154;2022-07-23T03:46:02;29.60;48.10
7077;DHT22;3579;48.956;9.154;2022-07-23T03:48:28;29.60;48.10
7077;DHT22;3579;48.956;9.154;2022-07-23T03:50:54;29.60;48.20
7077;DHT22;3579;48.956;9.154;2022-07-23T03:53:20;29.60;48.20
7077;DHT22;3579;48.956;9.154;2022-07-23T03:55:46;29.60;48.20
7077;DHT22;3579;48.956;9.154;2022-07-23T03:58:12;29.60;48.10
7077;DHT22;3579;48.956;9.154;2022-07-23T04:00:38;29.60;48.20
7077;DHT22;3579;48.956;9.154;2022-07-23T04:03:04;29.60;48.10
7077;DHT22;3579;48.956;9.154;2022-07-23T04:05:30;29.60;48.10
7077;DHT22;3579;48.956;9.154;2022-07-23T04:07:56;29.60;48.10
7077;DHT22;3579;48.956;9.154;2022-07-23T04:10:22;29.60;48.10
7077;DHT22;3579;48.956;9.154;2022-07-23T04:12:48;29.60;48.20
7077;DHT22;3579;48.956;9.154;2022-07-23T04:15:13;29.60;48.20
7077;DHT22;3579;48.956;9.154;2022-07-23T04:17:39;29.60;48.20
7077;DHT22;3579;48.956;9.154;2022-07-23T04:20:06;29.60;48.60
7077;DHT22;3579;48.956;9.154;2022-07-23T04:22:32;29.60;48.10
7077;DHT22;3579;48.956;9.154;2022-07-23T04:24:58;29.60;48.10
7077;DHT22;3579;48.956;9.154;2022-07-23T04:27:23;29.60;48.00
7077;DHT22;3579;48.956;9.154;2022-07-23T04:29:49;29.60;48.00
7077;DHT22;3579;48.956;9.154;2022-07-23T04:32:15;29.60;48.00
7077;DHT22;3579;48.956;9.154;2022-07-23T04:34:41;29.60;48.00
7077;DHT22;3579;48.956;9.154;2022-07-23T04:37:07;29.60;48.60
7077;DHT22;3579;48.956;9.154;2022-07-23T04:39:33;29.70;48.10
7077;DHT22;3579;48.956;9.154;2022-07-23T04:41:59;29.60;48.00
7077;DHT22;3579;48.956;9.154;2022-07-23T04:44:25;29.60;48.00
7077;DHT22;3579;48.956;9.154;2022-07-23T04:46:51;29.60;48.00
7077;DHT22;3579;48.956;9.154;2022-07-23T04:49:17;29.60;48.00
7077;DHT22;3579;48.956;9.154;2022-07-23T04:51:43;29.60;47.90
7077;DHT22;3579;48.956;9.154;2022-07-23T04:54:08;29.70;48.00
7077;DHT22;3579;48.956;9.154;2022-07-23T04:56:34;29.60;48.00
7077;DHT22;3579;48.956;9.154;2022-07-23T04:59:00;29.60;47.90
7077;DHT22;3579;48.956;9.154;2022-07-23T05:01:26;29.60;47.90
7077;DHT22;3579;48.956;9.154;2022-07-23T05:03:52;29.60;48.00
7077;DHT22;3579;48.956;9.154;2022-07-23T05:06:18;29.60;48.00
7077;DHT22;3579;48.956;9.154;2022-07-23T05:08:44;29.60;47.90
7077;DHT22;3579;48.956;9.154;2022-07-23T05:11:10;29.60;47.90
7077;DHT22;3579;48.956;9.154;2022-07-23T05:13:36;29.60;48.00
7077;DHT22;3579;48.956;9.154;2022-07-23T05:16:02;29.60;48.00
7077;DHT22;3579;48.956;9.154;2022-07-23T05:18:28;29.60;48.00
7077;DHT22;3579;48.956;9.154;2022-07-23T05:20:54;29.60;48.00
7077;DHT22;3579;48.956;9.154;2022-07-23T05:23:20;29.60;48.00
7077;DHT22;3579;48.956;9.154;2022-07-23T05:25:46;29.60;47.90
7077;DHT22;3579;48.956;9.154;2022-07-23T05:28:12;29.60;48.20
7077;DHT22;3579;48.956;9.154;2022-07-23T05:30:38;29.60;48.00
7077;DHT22;3579;48.956;9.154;2022-07-23T05:33:04;29.60;48.00
7077;DHT22;3579;48.956;9.154;2022-07-23T05:35:30;29.60;48.00
7077;DHT22;3579;48.956;9.154;2022-07-23T05:37:56;29.60;48.00
7077;DHT22;3579;48.956;9.154;2022-07-23T05:40:22;29.60;48.00
7077;DHT22;3579;48.956;9.154;2022-07-23T05:42:48;29.60;48.00
7077;DHT22;3579;48.956;9.154;2022-07-23T05:45:13;29.60;48.00
7077;DHT22;3579;48.956;9.154;2022-07-23T05:47:44;29.60;48.50
7077;DHT22;3579;48.956;9.154;2022-07-23T05:50:12;29.60;48.00
7077;DHT22;3579;48.956;9.154;2022-07-23T05:52:38;29.60;48.00
7077;DHT22;3579;48.956;9.154;2022-07-23T05:55:05;29.60;48.00
7077;DHT22;3579;48.956;9.154;2022-07-23T05:57:31;29.60;48.00
7077;DHT22;3579;48.956;9.154;2022-07-23T05:59:57;29.60;48.00
7077;DHT22;3579;48.956;9.154;2022-07-23T06:02:23;29.60;48.00
7077;DHT22;3579;48.956;9.154;2022-07-23T06:04:49;29.60;48.00
7077;DHT22;3579;48.956;9.154;2022-07-23T06:07:15;29.60;48.00
7077;DHT22;3579;48.956;9.154;2022-07-23T06:09:41;29.60;48.00
7077;DHT22;3579;48.956;9.154;2022-07-23T06:12:07;29.60;48.00
7077;DHT22;3579;48.956;9.154;2022-07-23T06:14:33;29.60;48.00
7077;DHT22;3579;48.956;9.154;2022-07-23T06:16:59;29.60;48.00
7077;DHT22;3579;48.956;9.154;2022-07-23T06:19:25;29.60;48.10
7077;DHT22;3579;48.956;9.154;2022-07-23T06:21:51;29.60;48.10
7077;DHT22;3579;48.956;9.154;2022-07-23T06:24:18;29.60;48.20
7077;DHT22;3579;48.956;9.154;2022-07-23T06:26:43;29.60;48.20
7077;DHT22;3579;48.956;9.154;2022-07-23T06:29:10;29.50;48.20
7077;DHT22;3579;48.956;9.154;2022-07-23T06:31:36;29.50;48.30
7077;DHT22;3579;48.956;9.154;2022-07-23T06:34:02;29.50;48.10
7077;DHT22;3579;48.956;9.154;2022-07-23T06:36:28;29.60;48.20
7077;DHT22;3579;48.956;9.154;2022-07-23T06:38:54;29.60;48.10
7077;DHT22;3579;48.956;9.154;2022-07-23T06:41:20;29.60;48.10
7077;DHT22;3579;48.956;9.154;2022-07-23T06:43:48;29.60;48.10
7077;DHT22;3579;48.956;9.154;2022-07-23T06:46:14;29.60;48.20
7077;DHT22;3579;48.956;9.154;2022-07-23T06:48:40;29.60;48.10
7077;DHT22;3579;48.956;9.154;2022-07-23T06:51:06;29.60;48.10
7077;DHT22;3579;48.956;9.154;2022-07-23T06:53:32;29.60;48.20
7077;DHT22;3579;48.956;9.154;2022-07-23T06:55:58;29.60;48.20
7077;DHT22;3579;48.956;9.154;2022-07-23T06:58:24;29.60;48.30
7077;DHT22;3579;48.956;9.154;2022-07-23T07:00:50;29.50;48.60
7077;DHT22;3579;48.956;9.154;2022-07-23T07:03:18;29.50;49.00
7077;DHT22;3579;48.956;9.154;2022-07-23T07:05:44;29.40;48.90
7077;DHT22;3579;48.956;9.154;2022-07-23T07:08:10;29.40;49.00
7077;DHT22;3579;48.956;9.154;2022-07-23T07:10:36;29.30;49.60
7077;DHT22;3579;48.956;9.154;2022-07-23T07:13:02;29.30;49.70
7077;DHT22;3579;48.956;9.154;2022-07-23T07:15:28;29.30;50.00
7077;DHT22;3579;48.956;9.154;2022-07-23T07:17:54;29.20;50.20
7077;DHT22;3579;48.956;9.154;2022-07-23T07:20:20;29.30;49.50
7077;DHT22;3579;48.956;9.154;2022-07-23T07:22:46;29.30;49.40
7077;DHT22;3579;48.956;9.154;2022-07-23T07:25:12;29.40;49.40
7077;DHT22;3579;48.956;9.154;2022-07-23T07:27:38;29.40;49.20
7077;DHT22;3579;48.956;9.154;2022-07-23T07:30:05;29.40;49.20
7077;DHT22;3579;48.956;9.154;2022-07-23T07:32:31;29.50;49.20
7077;DHT22;3579;48.956;9.154;2022-07-23T07:34:58;29.50;49.10
7077;DHT22;3579;48.956;9.154;2022-07-23T07:37:24;29.50;49.00
7077;DHT22;3579;48.956;9.154;2022-07-23T07:39:50;29.50;49.00
7077;DHT22;3579;48.956;9.154;2022-07-23T07:42:16;29.60;49.00
7077;DHT22;3579;48.956;9.154;2022-07-23T07:44:42;29.60;48.90
7077;DHT22;3579;48.956;9.154;2022-07-23T07:47:08;29.60;48.90
7077;DHT22;3579;48.956;9.154;2022-07-23T07:49:34;29.60;48.90
7077;DHT22;3579;48.956;9.154;2022-07-23T07:52:00;29.60;48.90
7077;DHT22;3579;48.956;9.154;2022-07-23T07:54:26;29.70;48.90
7077;DHT22;3579;48.956;9.154;2022-07-23T07:56:52;29.70;49.00
7077;DHT22;3579;48.956;9.154;2022-07-23T07:59:18;29.70;49.00
7077;DHT22;3579;48.956;9.154;2022-07-23T08:01:44;29.70;49.00
7077;DHT22;3579;48.956;9.154;2022-07-23T08:04:10;29.70;49.10
7077;DHT22;3579;48.956;9.154;2022-07-23T08:06:36;29.70;49.10
7077;DHT22;3579;48.956;9.154;2022-07-23T08:09:02;29.60;49.20
7077;DHT22;3579;48.956;9.154;2022-07-23T08:11:28;29.60;49.30
7077;DHT22;3579;48.956;9.154;2022-07-23T08:13:54;29.60;49.40
7077;DHT22;3579;48.956;9.154;2022-07-23T08:16:20;29.60;49.40
7077;DHT22;3579;48.956;9.154;2022-07-23T08:18:46;29.60;49.40
7077;DHT22;3579;48.956;9.154;2022-07-23T08:21:12;29.60;49.40
7077;DHT22;3579;48.956;9.154;2022-07-23T08:23:38;29.70;49.50
7077;DHT22;3579;48.956;9.154;2022-07-23T08:26:04;29.70;49.40
7077;DHT22;3579;48.956;9.154;2022-07-23T08:28:30;29.70;49.50
7077;DHT22;3579;48.956;9.154;2022-07-23T08:30:59;29.70;49.50
7077;DHT22;3579;48.956;9.154;2022-07-23T08:33:25;29.70;50.10
7077;DHT22;3579;48.956;9.154;2022-07-23T08:35:51;29.70;49.60
7077;DHT22;3579;48.956;9.154;2022-07-23T08:38:20;29.70;49.60
7077;DHT22;3579;48.956;9.154;2022-07-23T08:40:51;29.60;49.60
7077;DHT22;3579;48.956;9.154;2022-07-23T08:43:20;29.70;49.60
7077;DHT22;3579;48.956;9.154;2022-07-23T08:45:50;29.70;49.70
7077;DHT22;3579;48.956;9.154;2022-07-23T08:48:18;29.70;49.70
7077;DHT22;3579;48.956;9.154;2022-07-23T08:50:47;29.70;49.70
7077;DHT22;3579;48.956;9.154;2022-07-23T08:53:14;29.70;49.80
7077;DHT22;3579;48.956;9.154;2022-07-23T08:55:46;29.70;50.40
7077;DHT22;3579;48.956;9.154;2022-07-23T08:58:13;29.70;49.90
7077;DHT22;3579;48.956;9.154;2022-07-23T09:00:39;29.70;49.90
7077;DHT22;3579;48.956;9.154;2022-07-23T09:03:05;29.70;49.90
7077;DHT22;3579;48.956;9.154;2022-07-23T09:05:32;29.70;49.80
7077;DHT22;3579;48.956;9.154;2022-07-23T09:11:02;29.70;50.00
7077;DHT22;3579;48.956;9.154;2022-07-23T09:16:09;29.70;50.00
7077;DHT22;3579;48.956;9.154;2022-07-23T09:18:46;29.80;50.00
7077;DHT22;3579;48.956;9.154;2022-07-23T09:24:03;29.80;50.00
7077;DHT22;3579;48.956;9.154;2022-07-23T09:34:22;29.90;50.20
7077;DHT22;3579;48.956;9.154;2022-07-23T09:36:50;30.00;50.50
7077;DHT22;3579;48.956;9.154;2022-07-23T09:39:28;29.90;50.00
7077;DHT22;3579;48.956;9.154;2022-07-23T09:41:54;30.00;50.60
7077;DHT22;3579;48.956;9.154;2022-07-23T09:44:21;30.00;50.50
7077;DHT22;3579;48.956;9.154;2022-07-23T09:46:50;30.00;50.60
7077;DHT22;3579;48.956;9.154;2022-07-23T09:49:22;30.00;50.50
7077;DHT22;3579;48.956;9.154;2022-07-23T09:51:54;30.10;50.40
7077;DHT22;3579;48.956;9.154;2022-07-23T09:56:55;30.10;50.10
7077;DHT22;3579;48.956;9.154;2022-07-23T09:59:28;30.10;50.10
7077;DHT22;3579;48.956;9.154;2022-07-23T10:01:56;30.10;50.60
7077;DHT22;3579;48.956;9.154;2022-07-23T10:04:24;30.10;50.60
7077;DHT22;3579;48.956;9.154;2022-07-23T10:06:52;30.10;50.30
7077;DHT22;3579;48.956;9.154;2022-07-23T10:09:23;30.10;50.40
7077;DHT22;3579;48.956;9.154;2022-07-23T10:11:50;30.10;50.20
7077;DHT22;3579;48.956;9.154;2022-07-23T10:14:18;30.10;50.50
7077;DHT22;3579;48.956;9.154;2022-07-23T10:16:45;30.10;50.60
7077;DHT22;3579;48.956;9.154;2022-07-23T10:19:11;30.10;50.40
7077;DHT22;3579;48.956;9.154;2022-07-23T10:21:41;30.10;50.50
7077;DHT22;3579;48.956;9.154;2022-07-23T10:38:01;30.20;50.60
7077;DHT22;3579;48.956;9.154;2022-07-23T10:40:30;30.20;50.70
7077;DHT22;3579;48.956;9.154;2022-07-23T10:42:59;30.20;50.70
7077;DHT22;3579;48.956;9.154;2022-07-23T10:45:32;30.20;50.60
7077;DHT22;3579;48.956;9.154;2022-07-23T10:48:16;30.20;50.50
7077;DHT22;3579;48.956;9.154;2022-07-23T10:50:45;30.20;50.50
7077;DHT22;3579;48.956;9.154;2022-07-23T10:59:22;30.30;50.40
7077;DHT22;3579;48.956;9.154;2022-07-23T11:01:48;30.30;50.00
7077;DHT22;3579;48.956;9.154;2022-07-23T11:04:14;30.30;49.70
7077;DHT22;3579;48.956;9.154;2022-07-23T11:15:13;30.40;49.20
7077;DHT22;3579;48.956;9.154;2022-07-23T11:22:36;30.40;49.20
7077;DHT22;3579;48.956;9.154;2022-07-23T11:25:03;30.40;49.20
7077;DHT22;3579;48.956;9.154;2022-07-23T11:27:45;30.40;49.10
7077;DHT22;3579;48.956;9.154;2022-07-23T11:35:41;30.40;48.80
7077;DHT22;3579;48.956;9.154;2022-07-23T11:38:13;30.40;48.80
7077;DHT22;3579;48.956;9.154;2022-07-23T11:40:39;30.40;48.80
7077;DHT22;3579;48.956;9.154;2022-07-23T11:43:08;30.40;48.70
7077;DHT22;3579;48.956;9.154;2022-07-23T11:48:06;30.50;48.60
7077;DHT22;3579;48.956;9.154;2022-07-23T11:50:34;30.50;48.70
7077;DHT22;3579;48.956;9.154;2022-07-23T11:53:00;30.50;48.60
7077;DHT22;3579;48.956;9.154;2022-07-23T11:55:27;30.50;48.60
7077;DHT22;3579;48.956;9.154;2022-07-23T11:57:54;30.50;48.60
7077;DHT22;3579;48.956;9.154;2022-07-23T12:00:23;30.50;48.60
7077;DHT22;3579;48.956;9.154;2022-07-23T12:02:52;30.50;48.60
7077;DHT22;3579;48.956;9.154;2022-07-23T12:05:20;30.50;48.70
7077;DHT22;3579;48.956;9.154;2022-07-23T12:07:50;30.60;48.70
7077;DHT22;3579;48.956;9.154;2022-07-23T12:15:18;30.60;48.60
7077;DHT22;3579;48.956;9.154;2022-07-23T12:17:46;30.60;48.50
7077;DHT22;3579;48.956;9.154;2022-07-23T12:20:21;30.60;48.60
7077;DHT22;3579;48.956;9.154;2022-07-23T12:22:51;30.60;48.70
7077;DHT22;3579;48.956;9.154;2022-07-23T12:25:19;30.60;48.70
7077;DHT22;3579;48.956;9.154;2022-07-23T12:27:46;30.60;48.60
7077;DHT22;3579;48.956;9.154;2022-07-23T12:30:25;30.70;48.70
7077;DHT22;3579;48.956;9.154;2022-07-23T12:32:53;30.70;48.70
7077;DHT22;3579;48.956;9.154;2022-07-23T12:35:21;30.70;48.50
7077;DHT22;3579;48.956;9.154;2022-07-23T12:37:50;30.70;48.40
7077;DHT22;3579;48.956;9.154;2022-07-23T12:42:49;30.70;48.40
7077;DHT22;3579;48.956;9.154;2022-07-23T12:45:16;30.70;48.30
7077;DHT22;3579;48.956;9.154;2022-07-23T12:47:53;30.70;48.10
7077;DHT22;3579;48.956;9.154;2022-07-23T12:50:41;30.70;48.00
7077;DHT22;3579;48.956;9.154;2022-07-23T12:53:14;30.70;48.10
7077;DHT22;3579;48.956;9.154;2022-07-23T12:55:42;30.70;47.90
7077;DHT22;3579;48.956;9.154;2022-07-23T12:58:12;30.70;47.80
7077;DHT22;3579;48.956;9.154;2022-07-23T13:03:38;30.80;47.70
7077;DHT22;3579;48.956;9.154;2022-07-23T13:06:09;30.80;48.30
7077;DHT22;3579;48.956;9.154;2022-07-23T13:08:36;30.80;47.70
7077;DHT22;3579;48.956;9.154;2022-07-23T13:11:04;30.80;48.30
7077;DHT22;3579;48.956;9.154;2022-07-23T13:13:32;30.80;47.70
7077;DHT22;3579;48.956;9.154;2022-07-23T13:15:58;30.80;47.60
7077;DHT22;3579;48.956;9.154;2022-07-23T13:18:25;30.80;47.70
7077;DHT22;3579;48.956;9.154;2022-07-23T13:20:52;30.80;47.70
7077;DHT22;3579;48.956;9.154;2022-07-23T13:23:18;30.80;47.60
7077;DHT22;3579;48.956;9.154;2022-07-23T13:25:45;30.80;47.60
7077;DHT22;3579;48.956;9.154;2022-07-23T13:28:12;30.80;47.60
7077;DHT22;3579;48.956;9.154;2022-07-23T13:30:39;30.80;47.40
7077;DHT22;3579;48.956;9.154;2022-07-23T13:33:05;30.90;47.40
7077;DHT22;3579;48.956;9.154;2022-07-23T13:35:35;30.90;47.30
7077;DHT22;3579;48.956;9.154;2022-07-23T13:38:02;30.90;47.30
7077;DHT22;3579;48.956;9.154;2022-07-23T13:40:29;30.90;47.40
7077;DHT22;3579;48.956;9.154;2022-07-23T13:42:55;30.90;47.30
7077;DHT22;3579;48.956;9.154;2022-07-23T13:45:21;30.90;47.30
7077;DHT22;3579;48.956;9.154;2022-07-23T13:47:47;30.90;47.00
7077;DHT22;3579;48.956;9.154;2022-07-23T13:50:13;30.90;46.80
7077;DHT22;3579;48.956;9.154;2022-07-23T13:52:42;30.90;46.70
7077;DHT22;3579;48.956;9.154;2022-07-23T13:55:08;30.90;46.50
7077;DHT22;3579;48.956;9.154;2022-07-23T13:57:34;30.90;46.20
7077;DHT22;3579;48.956;9.154;2022-07-23T14:00:01;30.90;46.40
7077;DHT22;3579;48.956;9.154;2022-07-23T14:02:27;30.90;46.10
7077;DHT22;3579;48.956;9.154;2022-07-23T14:04:53;30.90;46.00
7077;DHT22;3579;48.956;9.154;2022-07-23T14:07:20;30.90;45.80
7077;DHT22;3579;48.956;9.154;2022-07-23T14:09:46;30.90;46.00
7077;DHT22;3579;48.956;9.154;2022-07-23T14:12:11;30.90;46.20
7077;DHT22;3579;48.956;9.154;2022-07-23T14:14:37;31.00;46.20
7077;DHT22;3579;48.956;9.154;2022-07-23T14:17:05;30.90;46.00
7077;DHT22;3579;48.956;9.154;2022-07-23T14:19:31;30.90;46.00
7077;DHT22;3579;48.956;9.154;2022-07-23T14:21:57;30.90;46.10
7077;DHT22;3579;48.956;9.154;2022-07-23T14:24:23;31.00;46.20
7077;DHT22;3579;48.956;9.154;2022-07-23T14:26:49;30.90;46.00
7077;DHT22;3579;48.956;9.154;2022-07-23T14:29:15;30.90;45.90
7077;DHT22;3579;48.956;9.154;2022-07-23T14:31:41;31.00;45.90
7077;DHT22;3579;48.956;9.154;2022-07-23T14:34:07;31.00;46.00
7077;DHT22;3579;48.956;9.154;2022-07-23T14:36:33;31.00;46.00
7077;DHT22;3579;48.956;9.154;2022-07-23T14:38:59;31.00;45.90
7077;DHT22;3579;48.956;9.154;2022-07-23T14:41:25;31.00;45.90
7077;DHT22;3579;48.956;9.154;2022-07-23T14:43:51;31.00;46.00
7077;DHT22;3579;48.956;9.154;2022-07-23T14:46:17;31.00;46.00
7077;DHT22;3579;48.956;9.154;2022-07-23T14:48:43;31.00;45.90
7077;DHT22;3579;48.956;9.154;2022-07-23T14:51:09;31.10;46.00
7077;DHT22;3579;48.956;9.154;2022-07-23T14:53:35;31.10;46.00
7077;DHT22;3579;48.956;9.154;2022-07-23T14:56:01;31.10;46.10
7077;DHT22;3579;48.956;9.154;2022-07-23T14:58:29;31.10;46.10
7077;DHT22;3579;48.956;9.154;2022-07-23T15:00:55;31.10;46.20
7077;DHT22;3579;48.956;9.154;2022-07-23T15:03:21;31.10;46.20
7077;DHT22;3579;48.956;9.154;2022-07-23T15:05:47;31.10;46.20
7077;DHT22;3579;48.956;9.154;2022-07-23T15:08:13;31.10;46.30
7077;DHT22;3579;48.956;9.154;2022-07-23T15:10:39;31.10;46.30
7077;DHT22;3579;48.956;9.154;2022-07-23T15:13:05;31.10;46.90
7077;DHT22;3579;48.956;9.154;2022-07-23T15:15:31;31.10;46.30
7077;DHT22;3579;48.956;9.154;2022-07-23T15:17:57;31.10;46.30
7077;DHT22;3579;48.956;9.154;2022-07-23T15:20:23;31.10;46.40
7077;DHT22;3579;48.956;9.154;2022-07-23T15:22:49;31.10;46.40
7077;DHT22;3579;48.956;9.154;2022-07-23T15:25:15;31.10;46.50
7077;DHT22;3579;48.956;9.154;2022-07-23T15:27:41;31.10;46.50
7077;DHT22;3579;48.956;9.154;2022-07-23T15:30:07;31.10;46.50
7077;DHT22;3579;48.956;9.154;2022-07-23T15:32:33;31.10;46.50
7077;DHT22;3579;48.956;9.154;2022-07-23T15:34:59;31.10;46.70
7077;DHT22;3579;48.956;9.154;2022-07-23T15:37:26;31.20;46.60
7077;DHT22;3579;48.956;9.154;2022-07-23T15:39:52;31.10;46.50
7077;DHT22;3579;48.956;9.154;2022-07-23T15:42:18;31.20;46.60
7077;DHT22;3579;48.956;9.154;2022-07-23T15:44:44;31.20;46.60
7077;DHT22;3579;48.956;9.154;2022-07-23T15:47:16;31.20;46.60
7077;DHT22;3579;48.956;9.154;2022-07-23T15:49:43;31.20;46.60
7077;DHT22;3579;48.956;9.154;2022-07-23T15:52:09;31.20;46.80
7077;DHT22;3579;48.956;9.154;2022-07-23T15:54:36;31.10;46.80
7077;DHT22;3579;48.956;9.154;2022-07-23T15:57:03;31.10;46.80
7077;DHT22;3579;48.956;9.154;2022-07-23T15:59:29;31.20;46.80
7077;DHT22;3579;48.956;9.154;2022-07-23T16:01:56;31.20;46.90
7077;DHT22;3579;48.956;9.154;2022-07-23T16:04:22;31.20;46.90
7077;DHT22;3579;48.956;9.154;2022-07-23T16:06:48;31.20;47.00
7077;DHT22;3579;48.956;9.154;2022-07-23T16:09:14;31.20;47.00
7077;DHT22;3579;48.956;9.154;2022-07-23T16:11:40;31.20;46.90
7077;DHT22;3579;48.956;9.154;2022-07-23T16:14:06;31.20;47.00
7077;DHT22;3579;48.956;9.154;2022-07-23T16:16:32;31.20;47.00
7077;DHT22;3579;48.956;9.154;2022-07-23T16:18:58;31.20;47.00
7077;DHT22;3579;48.956;9.154;2022-07-23T16:21:24;31.20;47.00
7077;DHT22;3579;48.956;9.154;2022-07-23T16:23:50;31.20;47.00
7077;DHT22;3579;48.956;9.154;2022-07-23T16:26:18;31.20;47.10
7077;DHT22;3579;48.956;9.154;2022-07-23T16:28:46;31.10;47.60
7077;DHT22;3579;48.956;9.154;2022-07-23T16:31:12;31.20;47.10
7077;DHT22;3579;48.956;9.154;2022-07-23T16:33:39;31.20;47.10
7077;DHT22;3579;48.956;9.154;2022-07-23T16:36:06;31.20;47.10
7077;DHT22;3579;48.956;9.154;2022-07-23T16:38:34;31.20;47.10
7077;DHT22;3579;48.956;9.154;2022-07-23T16:41:00;31.20;47.10
7077;DHT22;3579;48.956;9.154;2022-07-23T16:43:26;31.20;47.20
7077;DHT22;3579;48.956;9.154;2022-07-23T16:45:53;31.20;47.20
7077;DHT22;3579;48.956;9.154;2022-07-23T16:48:19;31.10;47.20
7077;DHT22;3579;48.956;9.154;2022-07-23T16:50:46;31.20;47.20
7077;DHT22;3579;48.956;9.154;2022-07-23T16:53:13;31.20;47.20
7077;DHT22;3579;48.956;9.154;2022-07-23T16:55:39;31.20;47.20
7077;DHT22;3579;48.956;9.154;2022-07-23T16:58:05;31.20;47.30
7077;DHT22;3579;48.956;9.154;2022-07-23T17:00:32;31.10;47.20
7077;DHT22;3579;48.956;9.154;2022-07-23T17:02:58;31.10;47.30
7077;DHT22;3579;48.956;9.154;2022-07-23T17:05:24;31.10;47.30
7077;DHT22;3579;48.956;9.154;2022-07-23T17:07:50;31.10;47.30
7077;DHT22;3579;48.956;9.154;2022-07-23T17:10:20;31.10;47.30